To NAV CANADA Home Page Login to a new session Search on AWWS site Feedback and Comments Disclaimer Vers la page française équivalente Tips FAQ What's new on the site To the Forecasts and Observations / NOTAM section To "File a Flight Plan" website Publications and other links Update of the User's profile FIC Telephone Numbers My Weather Data Folder Route Weather Data Regional Weather Data Local Weather Data To the Forecasts and Observations / NOTAM section
Request Generated 06/26/2017 at 03:32:56 UTC . Weather information available at that time is displayed.

METAR/TAF

EUREKA/NU    

METAR CWEU 260300Z 18023G33KT 15SM -SHRA FEW005 FEW015 OVC050 02/01
A2953 RMK SF1SC1SC6 CVCTV CLD EMBD LAST OBS/NEXT 260600Z SLP001=
METAR CWEU 260200Z 18029G39KT 15SM -SHRA FEW005 FEW015 BKN060 OVC080
03/01 A2951 RMK SF1SC1SC4AS2 CVCTV CLD EMBD SLP997=
METAR CWEU 260100Z 17031G38KT 15SM FEW010 OVC055 03/01 A2951 RMK
SC2SC6 SLP997=

*** REMARK        : Forecast period has ended; this was the last TAF issued
*** REMARQUE : La période de prévision est échue; ceci était le dernier TAF qui a été émis
TAF CYEU 252352Z 2600/2602 ADVISORY OFFSITE 17025G35KT P6SM VCSH
FEW005 BKN050 OVC080
RMK NXT FCST WILL BE ISSUED AT 261045Z=
Your time UTC time
Weather data provided by Environment Canada and NAV CANADA